createdAt,value
2023-03-01T00:04:15.175Z,0.60
2023-03-01T00:09:18.523Z,0.40
2023-03-01T00:14:21.802Z,0.20
2023-03-01T00:19:26.674Z,0.10
2023-03-01T00:24:30.030Z,0.10
2023-03-01T00:29:33.543Z,1.60
2023-03-01T00:34:38.221Z,0.00
2023-03-01T00:39:41.430Z,0.30
2023-03-01T00:44:45.023Z,0.00
2023-03-01T00:49:50.437Z,0.00
2023-03-01T00:54:55.051Z,0.10
2023-03-01T00:59:58.409Z,0.60
2023-03-01T01:05:04.069Z,0.20
2023-03-01T01:10:09.158Z,0.20
2023-03-01T01:15:15.101Z,0.20
2023-03-01T01:20:20.142Z,0.20
2023-03-01T01:25:25.989Z,0.10
2023-03-01T01:30:29.275Z,0.20
2023-03-01T01:35:34.118Z,0.30
2023-03-01T01:40:44.496Z,0.30
2023-03-01T01:45:48.091Z,0.30
2023-03-01T01:51:01.185Z,0.10
2023-03-01T01:56:05.812Z,0.00
2023-03-01T02:01:10.146Z,-0.10
2023-03-01T02:06:23.705Z,-0.20
2023-03-01T02:11:28.028Z,-0.30
2023-03-01T02:16:32.504Z,-0.40
2023-03-01T02:21:48.112Z,-0.10
2023-03-01T02:26:56.192Z,-0.60
2023-03-01T02:32:04.435Z,-0.70
2023-03-01T02:37:12.808Z,-0.70
2023-03-01T02:42:20.608Z,-0.70
2023-03-01T02:47:25.276Z,-0.80
2023-03-01T02:52:46.263Z,-0.70
2023-03-01T02:57:51.949Z,-0.70
2023-03-01T03:02:58.819Z,-0.80
2023-03-01T03:08:04.882Z,-0.90
2023-03-01T03:13:15.045Z,-0.80
2023-03-01T03:18:21.317Z,-0.80
2023-03-01T03:23:25.118Z,-0.90
2023-03-01T03:28:28.368Z,-0.90
2023-03-01T03:33:33.436Z,-1.00
2023-03-01T03:38:36.671Z,-0.70
2023-03-01T03:43:43.673Z,-1.10
2023-03-01T03:48:48.714Z,-1.10
2023-03-01T03:53:51.930Z,-1.10
2023-03-01T03:58:55.397Z,-0.90
2023-03-01T04:04:05.209Z,-0.70
2023-03-01T04:09:08.762Z,-0.70
2023-03-01T04:14:12.412Z,-1.00
2023-03-01T04:19:17.433Z,-1.10
2023-03-01T04:24:20.744Z,-1.20
2023-03-01T04:29:23.996Z,-1.10
2023-03-01T04:34:28.704Z,-1.30
2023-03-01T04:39:32.075Z,-1.30
2023-03-01T04:44:35.664Z,-1.40
2023-03-01T04:49:40.326Z,-1.40
2023-03-01T04:54:44.201Z,-1.50
2023-03-01T04:59:47.404Z,-1.00
2023-03-01T05:04:52.360Z,-1.60
2023-03-01T05:09:55.606Z,-1.50
2023-03-01T05:14:59.558Z,-1.80
2023-03-01T05:20:08.858Z,-1.80
2023-03-01T05:25:12.173Z,-1.90
2023-03-01T05:30:16.188Z,-1.70
2023-03-01T05:35:21.091Z,-1.90
2023-03-01T05:40:26.074Z,-2.00
2023-03-01T05:45:30.171Z,-2.00
2023-03-01T05:50:38.707Z,-2.10
2023-03-01T05:55:44.022Z,-2.10
2023-03-01T06:00:48.917Z,-2.20
2023-03-01T06:05:58.283Z,-2.20
2023-03-01T06:11:01.550Z,-2.20
2023-03-01T06:16:07.514Z,-2.20
2023-03-01T06:21:12.398Z,-2.10
2023-03-01T06:26:15.614Z,-2.20
2023-03-01T06:31:19.036Z,-2.10
2023-03-01T06:36:23.791Z,-2.10
2023-03-01T06:41:27.029Z,-1.90
2023-03-01T06:46:30.571Z,-1.90
2023-03-01T06:51:35.432Z,-1.70
2023-03-01T06:56:38.839Z,-1.60
2023-03-01T07:01:42.095Z,-1.50
2023-03-01T07:06:55.256Z,-1.30
2023-03-01T07:11:59.722Z,-1.10
2023-03-01T07:17:03.074Z,-0.80
2023-03-01T07:22:08.855Z,-0.70
2023-03-01T07:27:12.508Z,-0.50
2023-03-01T07:32:15.813Z,-0.40
2023-03-01T07:37:20.443Z,-0.20
2023-03-01T07:42:23.704Z,0.10
2023-03-01T07:47:27.060Z,0.50
2023-03-01T07:52:32.057Z,0.80
2023-03-01T07:57:35.347Z,1.60
2023-03-01T08:02:38.430Z,2.40
2023-03-01T08:07:43.015Z,3.60
2023-03-01T08:12:46.246Z,4.50
2023-03-01T08:17:52.005Z,4.90
2023-03-01T08:22:56.646Z,5.50
2023-03-01T08:28:00.250Z,6.50
2023-03-01T08:33:03.564Z,6.90
2023-03-01T08:38:08.177Z,6.80
2023-03-01T08:43:12.026Z,7.70
2023-03-01T08:48:15.264Z,7.80
2023-03-01T08:53:19.845Z,8.80
2023-03-01T08:58:23.060Z,9.00
2023-03-01T09:03:26.432Z,10.00
2023-03-01T09:08:31.125Z,9.60
2023-03-01T09:13:35.157Z,9.60
2023-03-01T09:18:38.420Z,10.10
2023-03-01T09:23:45.076Z,9.80
2023-03-01T09:28:49.081Z,10.10
2023-03-01T09:33:54.647Z,11.20
2023-03-01T09:39:00.981Z,10.70
2023-03-01T09:44:10.279Z,11.00
2023-03-01T09:49:20.381Z,11.70
2023-03-01T09:54:25.273Z,12.50
2023-03-01T09:59:34.904Z,11.30
2023-03-01T10:04:47.047Z,11.80
2023-03-01T10:09:51.737Z,12.00
2023-03-01T10:15:01.780Z,12.70
2023-03-01T10:20:26.758Z,12.90
2023-03-01T10:25:46.776Z,13.00
2023-03-01T10:30:50.173Z,13.30
2023-03-01T10:35:53.967Z,14.70
2023-03-01T10:41:00.669Z,14.40
2023-03-01T10:46:03.942Z,14.40
2023-03-01T10:51:07.940Z,14.60
2023-03-01T10:56:14.376Z,11.10
2023-03-01T11:01:28.920Z,13.80
2023-03-01T11:06:32.326Z,14.50
2023-03-01T11:11:37.478Z,15.10
2023-03-01T11:16:43.039Z,15.20
2023-03-01T11:21:55.649Z,15.60
2023-03-01T11:27:04.938Z,16.00
2023-03-01T11:32:11.249Z,15.10
2023-03-01T11:37:30.909Z,15.60
2023-03-01T11:42:50.144Z,16.00
2023-03-01T11:48:13.247Z,16.70
2023-03-01T11:53:34.624Z,17.70
2023-03-01T11:59:15.158Z,17.60
2023-03-01T12:04:52.228Z,17.40
2023-03-01T12:10:10.139Z,17.50
2023-03-01T12:15:41.553Z,17.90
2023-03-01T12:20:53.323Z,18.10
2023-03-01T12:26:04.803Z,18.10
2023-03-01T12:31:32.596Z,17.90
2023-03-01T12:36:58.767Z,17.30
2023-03-01T12:42:11.273Z,17.40
2023-03-01T12:47:27.522Z,18.00
2023-03-01T12:52:39.095Z,17.30
2023-03-01T12:57:50.153Z,17.60
2023-03-01T13:03:00.482Z,17.80
2023-03-01T13:08:11.746Z,17.90
2023-03-01T13:13:21.623Z,17.90
2023-03-01T13:18:34.510Z,16.70
2023-03-01T13:23:39.856Z,18.00
2023-03-01T13:28:57.055Z,17.30
2023-03-01T13:34:02.271Z,17.00
2023-03-01T13:39:07.509Z,16.90
2023-03-01T13:44:15.125Z,17.10
2023-03-01T13:49:23.827Z,18.20
2023-03-01T13:54:31.438Z,18.60
2023-03-01T13:59:34.844Z,18.30
2023-03-01T14:04:40.051Z,18.30
2023-03-01T14:09:45.409Z,17.20
2023-03-01T14:14:56.970Z,17.80
2023-03-01T14:20:05.480Z,18.10
2023-03-01T14:25:22.796Z,18.10
2023-03-01T14:30:29.151Z,17.60
2023-03-01T14:35:36.092Z,18.10
2023-03-01T14:40:39.633Z,17.60
2023-03-01T14:45:50.420Z,17.40
2023-03-01T14:50:55.102Z,17.80
2023-03-01T14:56:03.734Z,17.90
2023-03-01T15:01:09.495Z,17.20
2023-03-01T15:06:18.070Z,16.80
2023-03-01T15:11:25.913Z,16.60
2023-03-01T15:16:31.859Z,16.90
2023-03-01T15:21:38.392Z,17.30
2023-03-01T15:26:44.322Z,17.20
2023-03-01T15:31:57.609Z,16.30
2023-03-01T15:37:04.041Z,16.10
2023-03-01T15:42:09.879Z,15.30
2023-03-01T15:47:29.336Z,14.60
2023-03-01T15:52:40.458Z,14.10
2023-03-01T15:57:43.864Z,14.10
2023-03-01T16:02:47.460Z,13.40
2023-03-01T16:07:52.472Z,13.20
2023-03-01T16:12:55.851Z,12.80
2023-03-01T16:18:00.351Z,12.10
2023-03-01T16:23:07.380Z,11.00
2023-03-01T16:28:11.214Z,9.70
2023-03-01T16:33:33.965Z,9.00
2023-03-01T16:38:39.633Z,8.40
2023-03-01T16:43:43.123Z,8.00
2023-03-01T16:48:47.267Z,7.50
2023-03-01T16:53:52.757Z,7.30
2023-03-01T16:58:56.114Z,7.00
2023-03-01T17:03:59.480Z,6.80
2023-03-01T17:09:04.071Z,6.50
2023-03-01T17:14:07.275Z,6.30
2023-03-01T17:19:10.556Z,6.20
2023-03-01T17:24:15.376Z,6.00
2023-03-01T17:29:21.777Z,5.90
2023-03-01T17:34:26.055Z,5.70
2023-03-01T17:39:36.269Z,5.60
2023-03-01T17:44:40.329Z,5.50
2023-03-01T17:49:44.569Z,5.50
2023-03-01T17:54:49.726Z,5.40
2023-03-01T17:59:53.327Z,5.20
2023-03-01T18:05:00.196Z,5.20
2023-03-01T18:10:05.880Z,5.20
2023-03-01T18:15:10.734Z,5.10
2023-03-01T18:20:15.612Z,5.00
2023-03-01T18:25:20.632Z,4.80
2023-03-01T18:30:24.010Z,4.80
2023-03-01T18:35:27.710Z,4.70
2023-03-01T18:40:33.579Z,4.70
2023-03-01T18:45:37.199Z,4.60
2023-03-01T18:50:40.782Z,4.40
2023-03-01T18:55:45.494Z,4.30
2023-03-01T19:00:48.743Z,4.20
2023-03-01T19:05:52.064Z,4.10
2023-03-01T19:11:01.055Z,3.90
2023-03-01T19:16:06.523Z,3.80
2023-03-01T19:21:11.964Z,3.70
2023-03-01T19:26:19.327Z,3.70
2023-03-01T19:31:25.988Z,3.60
2023-03-01T19:36:33.302Z,3.70
2023-03-01T19:41:38.195Z,5.30
2023-03-01T19:46:41.870Z,3.50
2023-03-01T19:51:45.437Z,3.50
2023-03-01T19:56:52.097Z,3.60
2023-03-01T20:01:56.227Z,3.60
2023-03-01T20:06:59.590Z,3.50
2023-03-01T20:12:04.369Z,3.50
2023-03-01T20:17:07.828Z,3.40
2023-03-01T20:22:14.962Z,3.40
2023-03-01T20:27:19.681Z,3.40
2023-03-01T20:32:23.841Z,3.30
2023-03-01T20:37:28.264Z,3.20
2023-03-01T20:42:33.224Z,3.20
2023-03-01T20:47:36.568Z,3.20
2023-03-01T20:52:47.340Z,3.10
2023-03-01T20:57:53.160Z,3.10
2023-03-01T21:02:56.622Z,3.10
2023-03-01T21:08:03.096Z,3.10
2023-03-01T21:13:07.937Z,3.00
2023-03-01T21:18:11.406Z,3.00
2023-03-01T21:23:14.971Z,2.90
2023-03-01T21:28:19.767Z,2.80
2023-03-01T21:33:23.081Z,2.70
2023-03-01T21:38:28.218Z,2.70
2023-03-01T21:43:33.765Z,2.50
2023-03-01T21:48:38.241Z,2.40
2023-03-01T21:53:42.578Z,2.40
2023-03-01T21:58:47.197Z,2.30
2023-03-01T22:03:50.722Z,2.40
2023-03-01T22:08:59.210Z,2.30
2023-03-01T22:14:05.131Z,2.30
2023-03-01T22:19:08.981Z,2.30
2023-03-01T22:24:13.763Z,2.30
2023-03-01T22:29:20.885Z,2.20
2023-03-01T22:34:24.375Z,2.20
2023-03-01T22:39:27.664Z,2.00
2023-03-01T22:44:32.334Z,1.90
2023-03-01T22:49:35.878Z,1.90
2023-03-01T22:54:39.240Z,1.70
2023-03-01T22:59:43.901Z,1.80
2023-03-01T23:04:48.514Z,1.50
2023-03-01T23:09:51.875Z,1.50
2023-03-01T23:14:56.564Z,1.50
2023-03-01T23:19:59.815Z,1.40
2023-03-01T23:25:03.112Z,1.20
2023-03-01T23:30:09.404Z,1.20
2023-03-01T23:35:12.643Z,1.20
2023-03-01T23:40:17.046Z,1.30
2023-03-01T23:45:21.681Z,1.30
2023-03-01T23:50:25.357Z,1.20
2023-03-01T23:55:30.134Z,1.10
